sensor_id;sensor_type;location;lat;lon;timestamp;pressure;altitude;pressure_sealevel;temperature;humidity
77587;BME280;66744;49.716;17.158;2023-06-22T00:00:30;99401.69;;;21.84;70.34
77587;BME280;66744;49.716;17.158;2023-06-22T00:03:32;99400.38;;;21.74;69.95
77587;BME280;66744;49.716;17.158;2023-06-22T00:06:35;99396.53;;;21.66;70.46
77587;BME280;66744;49.716;17.158;2023-06-22T00:12:40;99390.16;;;21.60;71.19
77587;BME280;66744;49.716;17.158;2023-06-22T00:15:42;99394.94;;;21.54;71.39
77587;BME280;66744;49.716;17.158;2023-06-22T00:18:43;99392.63;;;21.47;72.04
77587;BME280;66744;49.716;17.158;2023-06-22T00:21:48;99390.09;;;21.49;71.39
77587;BME280;66744;49.716;17.158;2023-06-22T00:25:01;99388.09;;;21.49;71.23
77587;BME280;66744;49.716;17.158;2023-06-22T00:28:04;99384.78;;;21.51;71.13
77587;BME280;66744;49.716;17.158;2023-06-22T00:31:06;99373.59;;;21.51;71.30
77587;BME280;66744;49.716;17.158;2023-06-22T00:34:08;99379.44;;;21.53;70.92
77587;BME280;66744;49.716;17.158;2023-06-22T00:37:10;99375.38;;;21.54;71.47
77587;BME280;66744;49.716;17.158;2023-06-22T00:40:14;99383.28;;;21.55;70.52
77587;BME280;66744;49.716;17.158;2023-06-22T00:43:16;99384.53;;;21.54;71.03
77587;BME280;66744;49.716;17.158;2023-06-22T00:46:18;99383.75;;;21.48;71.04
77587;BME280;66744;49.716;17.158;2023-06-22T00:49:19;99386.75;;;21.39;70.29
77587;BME280;66744;49.716;17.158;2023-06-22T00:52:22;99393.09;;;21.34;70.20
77587;BME280;66744;49.716;17.158;2023-06-22T00:55:28;99377.00;;;21.24;69.38
77587;BME280;66744;49.716;17.158;2023-06-22T00:58:29;99396.06;;;21.25;70.28
77587;BME280;66744;49.716;17.158;2023-06-22T01:01:31;99388.63;;;21.11;69.70
77587;BME280;66744;49.716;17.158;2023-06-22T01:04:37;99390.59;;;21.05;70.13
77587;BME280;66744;49.716;17.158;2023-06-22T01:14:33;99398.91;;;20.99;70.44
77587;BME280;66744;49.716;17.158;2023-06-22T01:17:48;99404.75;;;20.96;70.34
77587;BME280;66744;49.716;17.158;2023-06-22T01:20:55;99394.53;;;20.87;70.24
77587;BME280;66744;49.716;17.158;2023-06-22T01:27:56;99394.38;;;20.71;71.36
77587;BME280;66744;49.716;17.158;2023-06-22T01:31:05;99391.59;;;20.71;71.49
77587;BME280;66744;49.716;17.158;2023-06-22T01:34:09;99406.78;;;20.70;71.47
77587;BME280;66744;49.716;17.158;2023-06-22T01:37:13;99397.84;;;20.60;70.53
77587;BME280;66744;49.716;17.158;2023-06-22T01:40:19;99394.50;;;20.56;71.46
77587;BME280;66744;49.716;17.158;2023-06-22T01:43:21;99400.81;;;20.51;71.30
77587;BME280;66744;49.716;17.158;2023-06-22T01:46:27;99412.25;;;20.53;71.29
77587;BME280;66744;49.716;17.158;2023-06-22T01:49:34;99411.97;;;20.51;71.15
77587;BME280;66744;49.716;17.158;2023-06-22T01:52:45;99407.91;;;20.52;71.48
77587;BME280;66744;49.716;17.158;2023-06-22T01:55:50;99398.72;;;20.46;72.29
77587;BME280;66744;49.716;17.158;2023-06-22T01:59:25;99392.38;;;20.45;71.81
77587;BME280;66744;49.716;17.158;2023-06-22T02:02:41;99398.53;;;20.55;72.25
77587;BME280;66744;49.716;17.158;2023-06-22T02:05:52;99389.09;;;20.47;71.77
77587;BME280;66744;49.716;17.158;2023-06-22T02:09:08;99393.13;;;20.46;72.22
77587;BME280;66744;49.716;17.158;2023-06-22T02:12:11;99394.19;;;20.48;71.08
77587;BME280;66744;49.716;17.158;2023-06-22T02:15:17;99398.97;;;20.42;70.67
77587;BME280;66744;49.716;17.158;2023-06-22T02:18:21;99395.41;;;20.42;70.02
77587;BME280;66744;49.716;17.158;2023-06-22T02:21:26;99392.03;;;20.38;70.43
77587;BME280;66744;49.716;17.158;2023-06-22T02:24:37;99385.66;;;20.32;70.54
77587;BME280;66744;49.716;17.158;2023-06-22T02:27:48;99390.47;;;20.31;71.14
77587;BME280;66744;49.716;17.158;2023-06-22T02:30:59;99379.16;;;20.20;71.93
77587;BME280;66744;49.716;17.158;2023-06-22T02:34:06;99378.13;;;20.18;71.57
77587;BME280;66744;49.716;17.158;2023-06-22T02:37:10;99383.16;;;20.14;72.92
77587;BME280;66744;49.716;17.158;2023-06-22T02:40:20;99377.09;;;20.15;72.19
77587;BME280;66744;49.716;17.158;2023-06-22T02:43:38;99359.31;;;20.13;71.42
77587;BME280;66744;49.716;17.158;2023-06-22T02:46:40;99357.22;;;20.08;71.88
77587;BME280;66744;49.716;17.158;2023-06-22T02:49:44;99358.69;;;20.03;71.96
77587;BME280;66744;49.716;17.158;2023-06-22T02:52:50;99361.50;;;20.03;72.19
77587;BME280;66744;49.716;17.158;2023-06-22T02:55:58;99358.59;;;19.92;72.81
77587;BME280;66744;49.716;17.158;2023-06-22T02:59:05;99366.66;;;19.90;73.24
77587;BME280;66744;49.716;17.158;2023-06-22T03:02:15;99381.63;;;19.92;73.06
77587;BME280;66744;49.716;17.158;2023-06-22T03:05:17;99382.34;;;19.87;72.69
77587;BME280;66744;49.716;17.158;2023-06-22T03:08:27;99371.28;;;19.73;73.30
77587;BME280;66744;49.716;17.158;2023-06-22T03:11:49;99374.84;;;19.53;73.42
77587;BME280;66744;49.716;17.158;2023-06-22T03:14:54;99370.53;;;19.52;74.28
77587;BME280;66744;49.716;17.158;2023-06-22T03:18:16;99362.78;;;19.62;74.76
77587;BME280;66744;49.716;17.158;2023-06-22T03:21:45;99354.00;;;19.69;73.75
77587;BME280;66744;49.716;17.158;2023-06-22T03:24:50;99356.63;;;19.78;74.54
77587;BME280;66744;49.716;17.158;2023-06-22T03:27:54;99368.09;;;19.80;74.86
77587;BME280;66744;49.716;17.158;2023-06-22T03:34:46;99371.69;;;19.86;74.84
77587;BME280;66744;49.716;17.158;2023-06-22T03:37:53;99376.97;;;19.84;74.83
77587;BME280;66744;49.716;17.158;2023-06-22T03:41:30;99375.94;;;19.81;74.44
77587;BME280;66744;49.716;17.158;2023-06-22T03:44:37;99377.13;;;19.75;74.35
77587;BME280;66744;49.716;17.158;2023-06-22T03:47:41;99371.28;;;19.73;74.27
77587;BME280;66744;49.716;17.158;2023-06-22T03:50:49;99383.84;;;19.83;74.29
77587;BME280;66744;49.716;17.158;2023-06-22T03:53:50;99358.81;;;19.88;73.89
77587;BME280;66744;49.716;17.158;2023-06-22T03:56:58;99373.06;;;19.96;73.63
77587;BME280;66744;49.716;17.158;2023-06-22T03:59:59;99373.38;;;19.98;73.75
77587;BME280;66744;49.716;17.158;2023-06-22T04:03:29;99387.16;;;20.07;73.37
77587;BME280;66744;49.716;17.158;2023-06-22T04:06:33;99381.78;;;20.04;73.95
77587;BME280;66744;49.716;17.158;2023-06-22T04:09:38;99372.38;;;20.01;73.79
77587;BME280;66744;49.716;17.158;2023-06-22T04:12:40;99382.81;;;20.06;74.54
77587;BME280;66744;49.716;17.158;2023-06-22T04:16:09;99400.66;;;20.14;73.69
77587;BME280;66744;49.716;17.158;2023-06-22T04:19:22;99406.38;;;20.25;74.70
77587;BME280;66744;49.716;17.158;2023-06-22T04:22:34;99417.16;;;20.38;73.58
77587;BME280;66744;49.716;17.158;2023-06-22T04:25:56;99419.53;;;20.45;74.02
77587;BME280;66744;49.716;17.158;2023-06-22T04:28:57;99411.22;;;20.50;74.38
77587;BME280;66744;49.716;17.158;2023-06-22T04:31:59;99420.66;;;20.59;74.63
77587;BME280;66744;49.716;17.158;2023-06-22T04:35:04;99416.41;;;20.63;74.01
77587;BME280;66744;49.716;17.158;2023-06-22T04:38:06;99408.38;;;20.76;74.24
77587;BME280;66744;49.716;17.158;2023-06-22T04:41:10;99402.13;;;20.87;73.85
77587;BME280;66744;49.716;17.158;2023-06-22T04:44:18;99412.31;;;20.90;73.50
77587;BME280;66744;49.716;17.158;2023-06-22T04:47:26;99423.00;;;20.97;73.72
77587;BME280;66744;49.716;17.158;2023-06-22T04:50:30;99427.66;;;21.05;73.35
77587;BME280;66744;49.716;17.158;2023-06-22T04:53:31;99423.16;;;21.08;74.62
77587;BME280;66744;49.716;17.158;2023-06-22T04:56:36;99427.03;;;21.22;74.24
77587;BME280;66744;49.716;17.158;2023-06-22T04:59:45;99416.94;;;21.35;73.98
77587;BME280;66744;49.716;17.158;2023-06-22T05:02:46;99429.75;;;21.53;73.23
77587;BME280;66744;49.716;17.158;2023-06-22T05:05:48;99418.38;;;21.62;72.83
77587;BME280;66744;49.716;17.158;2023-06-22T05:08:53;99418.44;;;21.73;72.49
77587;BME280;66744;49.716;17.158;2023-06-22T05:12:02;99423.25;;;21.67;72.87
77587;BME280;66744;49.716;17.158;2023-06-22T05:15:05;99427.84;;;21.76;73.61
77587;BME280;66744;49.716;17.158;2023-06-22T05:18:11;99441.44;;;21.88;72.35
77587;BME280;66744;49.716;17.158;2023-06-22T05:21:13;99441.16;;;21.92;72.12
77587;BME280;66744;49.716;17.158;2023-06-22T05:24:14;99431.97;;;21.86;72.92
77587;BME280;66744;49.716;17.158;2023-06-22T05:27:16;99447.53;;;21.92;72.04
77587;BME280;66744;49.716;17.158;2023-06-22T05:30:19;99440.44;;;21.91;72.72
77587;BME280;66744;49.716;17.158;2023-06-22T05:33:21;99444.53;;;22.01;72.57
77587;BME280;66744;49.716;17.158;2023-06-22T05:36:25;99449.16;;;22.15;72.09
77587;BME280;66744;49.716;17.158;2023-06-22T05:39:50;99439.00;;;22.24;72.22
77587;BME280;66744;49.716;17.158;2023-06-22T05:42:52;99441.56;;;22.33;71.55
77587;BME280;66744;49.716;17.158;2023-06-22T05:45:54;99459.16;;;22.44;70.94
77587;BME280;66744;49.716;17.158;2023-06-22T05:48:56;99449.53;;;22.56;71.44
77587;BME280;66744;49.716;17.158;2023-06-22T05:51:57;99455.38;;;22.58;71.12
77587;BME280;66744;49.716;17.158;2023-06-22T05:54:59;99457.19;;;22.67;70.69
77587;BME280;66744;49.716;17.158;2023-06-22T05:58:05;99457.41;;;22.58;70.76
77587;BME280;66744;49.716;17.158;2023-06-22T06:01:20;99455.66;;;22.66;70.67
77587;BME280;66744;49.716;17.158;2023-06-22T06:04:27;99452.84;;;22.66;70.82
77587;BME280;66744;49.716;17.158;2023-06-22T06:07:29;99457.44;;;22.69;71.17
77587;BME280;66744;49.716;17.158;2023-06-22T06:10:39;99457.19;;;22.84;71.27
77587;BME280;66744;49.716;17.158;2023-06-22T06:13:43;99449.31;;;22.93;70.32
77587;BME280;66744;49.716;17.158;2023-06-22T06:16:55;99445.22;;;23.11;69.71
77587;BME280;66744;49.716;17.158;2023-06-22T06:19:59;99444.72;;;23.12;nan
77587;BME280;66744;49.716;17.158;2023-06-22T06:23:21;99434.00;;;23.16;69.76
77587;BME280;66744;49.716;17.158;2023-06-22T06:26:30;99436.28;;;23.29;69.25
77587;BME280;66744;49.716;17.158;2023-06-22T06:30:01;99448.81;;;23.39;69.50
77587;BME280;66744;49.716;17.158;2023-06-22T06:33:09;99454.88;;;23.60;69.17
77587;BME280;66744;49.716;17.158;2023-06-22T06:36:11;99443.59;;;23.76;68.08
77587;BME280;66744;49.716;17.158;2023-06-22T06:39:30;99442.25;;;23.94;67.59
77587;BME280;66744;49.716;17.158;2023-06-22T06:42:42;99438.69;;;23.99;67.60
77587;BME280;66744;49.716;17.158;2023-06-22T06:45:58;99445.78;;;24.11;66.55
77587;BME280;66744;49.716;17.158;2023-06-22T06:49:06;99453.91;;;24.20;66.76
77587;BME280;66744;49.716;17.158;2023-06-22T06:52:37;99449.81;;;24.21;66.61
77587;BME280;66744;49.716;17.158;2023-06-22T06:55:44;99450.31;;;24.25;66.07
77587;BME280;66744;49.716;17.158;2023-06-22T06:58:54;99458.69;;;24.37;66.44
77587;BME280;66744;49.716;17.158;2023-06-22T07:02:00;99454.00;;;24.50;65.29
77587;BME280;66744;49.716;17.158;2023-06-22T07:05:04;99447.81;;;24.57;65.82
77587;BME280;66744;49.716;17.158;2023-06-22T07:08:08;99450.31;;;24.66;65.30
77587;BME280;66744;49.716;17.158;2023-06-22T07:11:13;99456.66;;;24.72;65.24
77587;BME280;66744;49.716;17.158;2023-06-22T07:14:19;99448.22;;;24.72;64.92
77587;BME280;66744;49.716;17.158;2023-06-22T07:17:24;99437.16;;;24.85;64.27
77587;BME280;66744;49.716;17.158;2023-06-22T07:20:35;99438.91;;;24.94;63.93
77587;BME280;66744;49.716;17.158;2023-06-22T07:24:02;99449.78;;;25.09;63.64
77587;BME280;66744;49.716;17.158;2023-06-22T07:27:04;99451.22;;;25.15;63.75
77587;BME280;66744;49.716;17.158;2023-06-22T07:30:11;99439.69;;;25.19;63.65
77587;BME280;66744;49.716;17.158;2023-06-22T07:33:13;99443.00;;;25.23;63.25
77587;BME280;66744;49.716;17.158;2023-06-22T07:36:21;99443.22;;;25.25;63.54
77587;BME280;66744;49.716;17.158;2023-06-22T07:39:22;99443.50;;;25.21;63.22
77587;BME280;66744;49.716;17.158;2023-06-22T07:42:31;99450.81;;;25.35;64.05
77587;BME280;66744;49.716;17.158;2023-06-22T07:45:37;99461.72;;;25.45;62.95
77587;BME280;66744;49.716;17.158;2023-06-22T07:48:49;99451.44;;;25.47;62.91
77587;BME280;66744;49.716;17.158;2023-06-22T07:52:05;99448.69;;;25.66;62.68
77587;BME280;66744;49.716;17.158;2023-06-22T07:55:19;99464.88;;;25.84;62.82
77587;BME280;66744;49.716;17.158;2023-06-22T07:58:44;99458.75;;;26.04;61.65
77587;BME280;66744;49.716;17.158;2023-06-22T08:02:01;99455.00;;;25.96;61.72
77587;BME280;66744;49.716;17.158;2023-06-22T08:05:15;99450.06;;;26.02;61.17
77587;BME280;66744;49.716;17.158;2023-06-22T08:08:19;99457.53;;;26.00;61.47
77587;BME280;66744;49.716;17.158;2023-06-22T08:11:29;99459.09;;;26.19;62.71
77587;BME280;66744;49.716;17.158;2023-06-22T08:14:41;99443.94;;;26.41;61.42
77587;BME280;66744;49.716;17.158;2023-06-22T08:17:55;99450.00;;;26.64;61.53
77587;BME280;66744;49.716;17.158;2023-06-22T08:21:34;99449.31;;;26.76;61.01
77587;BME280;66744;49.716;17.158;2023-06-22T08:24:54;99440.84;;;26.76;60.02
77587;BME280;66744;49.716;17.158;2023-06-22T08:28:13;99438.41;;;26.86;60.47
77587;BME280;66744;49.716;17.158;2023-06-22T08:31:17;99439.97;;;27.00;60.33
77587;BME280;66744;49.716;17.158;2023-06-22T08:34:22;99439.34;;;27.07;59.28
77587;BME280;66744;49.716;17.158;2023-06-22T08:37:31;99431.78;;;27.15;59.16
77587;BME280;66744;49.716;17.158;2023-06-22T08:40:39;99425.72;;;27.24;59.57
77587;BME280;66744;49.716;17.158;2023-06-22T08:44:10;99436.06;;;27.35;58.88
77587;BME280;66744;49.716;17.158;2023-06-22T08:47:30;99424.84;;;27.29;58.80
77587;BME280;66744;49.716;17.158;2023-06-22T08:50:46;99425.94;;;27.39;57.56
77587;BME280;66744;49.716;17.158;2023-06-22T08:54:28;99430.00;;;27.44;57.63
77587;BME280;66744;49.716;17.158;2023-06-22T08:57:54;99425.56;;;27.48;57.30
77587;BME280;66744;49.716;17.158;2023-06-22T09:01:01;99417.09;;;27.48;57.03
77587;BME280;66744;49.716;17.158;2023-06-22T09:04:31;99413.50;;;27.61;56.33
77587;BME280;66744;49.716;17.158;2023-06-22T09:07:47;99410.78;;;27.69;56.15
77587;BME280;66744;49.716;17.158;2023-06-22T09:21:07;99398.59;;;27.87;56.33
77587;BME280;66744;49.716;17.158;2023-06-22T09:24:19;99387.88;;;27.85;56.50
77587;BME280;66744;49.716;17.158;2023-06-22T09:27:36;99390.34;;;27.89;56.68
77587;BME280;66744;49.716;17.158;2023-06-22T09:30:53;99381.28;;;28.03;56.23
77587;BME280;66744;49.716;17.158;2023-06-22T09:34:07;99371.75;;;28.06;54.58
77587;BME280;66744;49.716;17.158;2023-06-22T09:37:14;99371.28;;;28.16;55.08
77587;BME280;66744;49.716;17.158;2023-06-22T09:40:58;99360.50;;;28.27;55.28
77587;BME280;66744;49.716;17.158;2023-06-22T09:44:22;99374.16;;;28.36;53.79
77587;BME280;66744;49.716;17.158;2023-06-22T09:48:08;99373.63;;;28.38;52.42
77587;BME280;66744;49.716;17.158;2023-06-22T09:51:26;99361.59;;;28.45;52.29
77587;BME280;66744;49.716;17.158;2023-06-22T09:55:02;99362.19;;;28.43;54.01
77587;BME280;66744;49.716;17.158;2023-06-22T09:58:46;99353.25;;;28.39;51.82
77587;BME280;66744;49.716;17.158;2023-06-22T10:02:04;99367.50;;;28.47;51.74
77587;BME280;66744;49.716;17.158;2023-06-22T10:05:22;99366.25;;;28.55;51.87
77587;BME280;66744;49.716;17.158;2023-06-22T10:08:53;99364.03;;;28.61;51.77
77587;BME280;66744;49.716;17.158;2023-06-22T10:12:12;99359.69;;;28.60;51.18
77587;BME280;66744;49.716;17.158;2023-06-22T10:15:42;99361.53;;;28.71;53.67
77587;BME280;66744;49.716;17.158;2023-06-22T10:19:27;99343.47;;;28.74;51.63
77587;BME280;66744;49.716;17.158;2023-06-22T10:22:55;99346.06;;;28.72;50.98
77587;BME280;66744;49.716;17.158;2023-06-22T10:26:07;99358.41;;;28.82;51.12
77587;BME280;66744;49.716;17.158;2023-06-22T10:29:20;99345.44;;;28.87;49.39
77587;BME280;66744;49.716;17.158;2023-06-22T10:33:01;99339.78;;;28.87;50.30
77587;BME280;66744;49.716;17.158;2023-06-22T10:36:43;99344.03;;;29.01;50.06
77587;BME280;66744;49.716;17.158;2023-06-22T10:40:16;99334.13;;;29.15;51.12
77587;BME280;66744;49.716;17.158;2023-06-22T10:43:30;99342.81;;;29.17;49.85
77587;BME280;66744;49.716;17.158;2023-06-22T10:46:50;99338.97;;;29.28;50.23
77587;BME280;66744;49.716;17.158;2023-06-22T10:50:14;99335.38;;;29.27;49.11
77587;BME280;66744;49.716;17.158;2023-06-22T10:53:31;99333.50;;;29.30;48.28
77587;BME280;66744;49.716;17.158;2023-06-22T10:56:44;99337.72;;;29.44;49.83
77587;BME280;66744;49.716;17.158;2023-06-22T11:00:00;99325.44;;;29.41;49.10
77587;BME280;66744;49.716;17.158;2023-06-22T11:03:28;99324.25;;;29.29;48.45
77587;BME280;66744;49.716;17.158;2023-06-22T11:06:35;99314.13;;;29.13;48.07
77587;BME280;66744;49.716;17.158;2023-06-22T11:09:39;99308.66;;;29.15;50.26
77587;BME280;66744;49.716;17.158;2023-06-22T11:12:43;99304.97;;;28.99;49.95
77587;BME280;66744;49.716;17.158;2023-06-22T11:15:56;99294.22;;;28.98;49.86
77587;BME280;66744;49.716;17.158;2023-06-22T11:19:07;99289.41;;;29.13;50.08
77587;BME280;66744;49.716;17.158;2023-06-22T11:22:19;99293.31;;;29.31;50.45
77587;BME280;66744;49.716;17.158;2023-06-22T11:25:41;99294.88;;;29.40;50.67
77587;BME280;66744;49.716;17.158;2023-06-22T11:33:24;99292.84;;;29.48;49.29
77587;BME280;66744;49.716;17.158;2023-06-22T11:41:12;99289.66;;;29.59;47.29
77587;BME280;66744;49.716;17.158;2023-06-22T11:49:24;99281.34;;;29.53;48.92
77587;BME280;66744;49.716;17.158;2023-06-22T11:52:29;99266.25;;;29.58;48.84
77587;BME280;66744;49.716;17.158;2023-06-22T11:55:33;99268.91;;;29.64;48.84
77587;BME280;66744;49.716;17.158;2023-06-22T11:58:40;99266.66;;;29.62;47.61
77587;BME280;66744;49.716;17.158;2023-06-22T12:02:03;99264.38;;;29.61;46.80
77587;BME280;66744;49.716;17.158;2023-06-22T12:05:10;99257.97;;;29.60;49.68
77587;BME280;66744;49.716;17.158;2023-06-22T12:08:12;99253.63;;;29.59;48.50
77587;BME280;66744;49.716;17.158;2023-06-22T12:11:17;99257.41;;;29.62;47.71
77587;BME280;66744;49.716;17.158;2023-06-22T12:14:25;99235.91;;;29.66;47.94
77587;BME280;66744;49.716;17.158;2023-06-22T12:17:41;99232.50;;;29.75;48.77
77587;BME280;66744;49.716;17.158;2023-06-22T12:21:06;99239.31;;;29.80;49.57
77587;BME280;66744;49.716;17.158;2023-06-22T12:24:14;99231.91;;;29.62;48.71
77587;BME280;66744;49.716;17.158;2023-06-22T12:27:39;99230.19;;;29.51;48.90
77587;BME280;66744;49.716;17.158;2023-06-22T12:30:41;99238.69;;;29.59;48.48
77587;BME280;66744;49.716;17.158;2023-06-22T12:34:03;99231.72;;;29.60;48.43
77587;BME280;66744;49.716;17.158;2023-06-22T12:37:05;99228.53;;;29.63;47.26
77587;BME280;66744;49.716;17.158;2023-06-22T12:40:10;99234.81;;;29.85;47.61
77587;BME280;66744;49.716;17.158;2023-06-22T12:43:20;99218.22;;;29.89;46.44
77587;BME280;66744;49.716;17.158;2023-06-22T12:46:30;99226.75;;;30.11;46.92
77587;BME280;66744;49.716;17.158;2023-06-22T12:49:54;99232.59;;;30.06;45.77
77587;BME280;66744;49.716;17.158;2023-06-22T12:53:17;99231.47;;;30.09;47.17
77587;BME280;66744;49.716;17.158;2023-06-22T12:56:28;99218.06;;;30.09;47.52
77587;BME280;66744;49.716;17.158;2023-06-22T12:59:52;99213.13;;;30.02;45.51
77587;BME280;66744;49.716;17.158;2023-06-22T13:03:44;99222.22;;;30.01;46.13
77587;BME280;66744;49.716;17.158;2023-06-22T13:07:18;99218.97;;;29.97;46.77
77587;BME280;66744;49.716;17.158;2023-06-22T13:10:51;99217.84;;;30.00;47.10
77587;BME280;66744;49.716;17.158;2023-06-22T13:14:33;99221.47;;;30.08;46.81
77587;BME280;66744;49.716;17.158;2023-06-22T13:18:10;99222.03;;;30.14;46.28
77587;BME280;66744;49.716;17.158;2023-06-22T13:21:23;99216.94;;;30.20;46.22
77587;BME280;66744;49.716;17.158;2023-06-22T13:25:02;99206.72;;;30.24;44.72
77587;BME280;66744;49.716;17.158;2023-06-22T13:28:38;99208.06;;;30.31;45.50
77587;BME280;66744;49.716;17.158;2023-06-22T13:32:31;99207.53;;;30.40;44.27
77587;BME280;66744;49.716;17.158;2023-06-22T13:35:48;99196.34;;;30.27;44.28
77587;BME280;66744;49.716;17.158;2023-06-22T13:38:57;99202.94;;;30.29;46.27
77587;BME280;66744;49.716;17.158;2023-06-22T13:42:05;99198.97;;;30.25;46.91
77587;BME280;66744;49.716;17.158;2023-06-22T13:45:19;99190.09;;;30.21;46.22
77587;BME280;66744;49.716;17.158;2023-06-22T13:48:37;99190.84;;;30.29;47.33
77587;BME280;66744;49.716;17.158;2023-06-22T13:52:13;99184.81;;;30.48;46.67
77587;BME280;66744;49.716;17.158;2023-06-22T13:55:19;99180.66;;;30.49;45.80
77587;BME280;66744;49.716;17.158;2023-06-22T13:58:27;99184.41;;;30.66;45.50
77587;BME280;66744;49.716;17.158;2023-06-22T14:02:20;99171.00;;;30.67;45.81
77587;BME280;66744;49.716;17.158;2023-06-22T14:05:27;99163.78;;;30.73;45.12
77587;BME280;66744;49.716;17.158;2023-06-22T14:08:32;99171.69;;;30.82;45.29
77587;BME280;66744;49.716;17.158;2023-06-22T14:11:47;99165.84;;;30.80;44.83
77587;BME280;66744;49.716;17.158;2023-06-22T14:14:50;99149.59;;;30.73;44.37
77587;BME280;66744;49.716;17.158;2023-06-22T14:18:14;99161.50;;;30.72;44.37
77587;BME280;66744;49.716;17.158;2023-06-22T14:21:28;99159.66;;;30.67;44.90
77587;BME280;66744;49.716;17.158;2023-06-22T14:29:29;99162.78;;;30.86;45.14
77587;BME280;66744;49.716;17.158;2023-06-22T14:38:00;99158.06;;;30.96;43.41
77587;BME280;66744;49.716;17.158;2023-06-22T14:46:25;99143.50;;;31.00;42.72
77587;BME280;66744;49.716;17.158;2023-06-22T14:49:26;99145.13;;;31.10;42.13
77587;BME280;66744;49.716;17.158;2023-06-22T14:52:27;99139.84;;;31.07;42.85
77587;BME280;66744;49.716;17.158;2023-06-22T14:55:29;99141.06;;;30.81;42.43
77587;BME280;66744;49.716;17.158;2023-06-22T14:58:34;99140.16;;;30.63;45.66
77587;BME280;66744;49.716;17.158;2023-06-22T15:01:47;99128.81;;;30.63;46.95
77587;BME280;66744;49.716;17.158;2023-06-22T15:04:49;99123.16;;;30.63;46.25
77587;BME280;66744;49.716;17.158;2023-06-22T15:07:50;99132.16;;;30.77;44.48
77587;BME280;66744;49.716;17.158;2023-06-22T15:10:58;99119.13;;;30.81;45.13
77587;BME280;66744;49.716;17.158;2023-06-22T15:14:04;99131.56;;;30.86;45.31
77587;BME280;66744;49.716;17.158;2023-06-22T15:17:09;99113.25;;;30.79;43.23
77587;BME280;66744;49.716;17.158;2023-06-22T15:20:14;99109.47;;;30.84;43.05
77587;BME280;66744;49.716;17.158;2023-06-22T15:23:26;99100.22;;;30.76;40.80
77587;BME280;66744;49.716;17.158;2023-06-22T15:26:30;99093.00;;;30.83;41.64
77587;BME280;66744;49.716;17.158;2023-06-22T15:29:35;99105.28;;;30.85;42.08
77587;BME280;66744;49.716;17.158;2023-06-22T15:32:53;99098.13;;;30.77;42.86
77587;BME280;66744;49.716;17.158;2023-06-22T15:35:55;99103.03;;;30.76;42.45
77587;BME280;66744;49.716;17.158;2023-06-22T15:38:59;99084.69;;;30.77;40.80
77587;BME280;66744;49.716;17.158;2023-06-22T15:42:00;99090.34;;;30.85;40.46
77587;BME280;66744;49.716;17.158;2023-06-22T15:45:03;99096.00;;;31.00;38.97
77587;BME280;66744;49.716;17.158;2023-06-22T15:48:15;99093.81;;;31.16;39.58
77587;BME280;66744;49.716;17.158;2023-06-22T15:51:27;99090.94;;;31.23;39.14
77587;BME280;66744;49.716;17.158;2023-06-22T15:54:32;99094.09;;;31.35;39.08
77587;BME280;66744;49.716;17.158;2023-06-22T15:57:36;99075.72;;;31.36;39.41
77587;BME280;66744;49.716;17.158;2023-06-22T16:00:43;99084.34;;;31.46;40.21
77587;BME280;66744;49.716;17.158;2023-06-22T16:03:58;99075.25;;;31.55;40.01
77587;BME280;66744;49.716;17.158;2023-06-22T16:07:00;99075.19;;;31.62;40.21
77587;BME280;66744;49.716;17.158;2023-06-22T16:10:06;99068.34;;;31.65;40.14
77587;BME280;66744;49.716;17.158;2023-06-22T16:13:10;99060.00;;;31.67;40.66
77587;BME280;66744;49.716;17.158;2023-06-22T16:16:15;99065.03;;;31.76;40.63
77587;BME280;66744;49.716;17.158;2023-06-22T16:19:30;99058.75;;;31.78;40.80
77587;BME280;66744;49.716;17.158;2023-06-22T16:22:32;99065.56;;;31.82;40.59
77587;BME280;66744;49.716;17.158;2023-06-22T16:25:33;99063.28;;;31.81;40.87
77587;BME280;66744;49.716;17.158;2023-06-22T16:28:35;99048.88;;;31.62;41.81
77587;BME280;66744;49.716;17.158;2023-06-22T16:31:37;99057.19;;;31.60;41.75
77587;BME280;66744;49.716;17.158;2023-06-22T16:34:39;99048.59;;;31.50;42.31
77587;BME280;66744;49.716;17.158;2023-06-22T16:37:40;99048.78;;;31.45;42.50
77587;BME280;66744;49.716;17.158;2023-06-22T16:40:41;99043.94;;;31.30;43.40
77587;BME280;66744;49.716;17.158;2023-06-22T16:43:52;99043.88;;;31.13;43.64
77587;BME280;66744;49.716;17.158;2023-06-22T16:47:19;99043.16;;;31.05;44.67
77587;BME280;66744;49.716;17.158;2023-06-22T16:50:39;99035.28;;;30.96;44.80
77587;BME280;66744;49.716;17.158;2023-06-22T16:53:42;99030.34;;;30.89;45.16
77587;BME280;66744;49.716;17.158;2023-06-22T16:56:58;99037.00;;;30.91;45.75
77587;BME280;66744;49.716;17.158;2023-06-22T17:00:45;99030.63;;;30.75;46.29
77587;BME280;66744;49.716;17.158;2023-06-22T17:03:54;99023.66;;;30.69;46.46
77587;BME280;66744;49.716;17.158;2023-06-22T17:07:14;99026.16;;;30.57;46.91
77587;BME280;66744;49.716;17.158;2023-06-22T17:14:41;99023.16;;;30.55;46.65
77587;BME280;66744;49.716;17.158;2023-06-22T17:17:56;99016.41;;;30.43;47.15
77587;BME280;66744;49.716;17.158;2023-06-22T17:20:58;99019.78;;;30.42;46.66
77587;BME280;66744;49.716;17.158;2023-06-22T17:24:13;99003.16;;;30.38;46.41
77587;BME280;66744;49.716;17.158;2023-06-22T17:31:55;98993.31;;;30.47;46.57
77587;BME280;66744;49.716;17.158;2023-06-22T17:35:10;98999.88;;;30.57;46.63
77587;BME280;66744;49.716;17.158;2023-06-22T17:38:34;98992.91;;;30.58;47.20
77587;BME280;66744;49.716;17.158;2023-06-22T17:41:39;98990.59;;;30.64;46.17
77587;BME280;66744;49.716;17.158;2023-06-22T17:45:08;98989.25;;;30.65;47.33
77587;BME280;66744;49.716;17.158;2023-06-22T17:48:33;98978.13;;;30.59;47.30